Time;durP1;ratioP1;P1;durP2;ratioP2;P2;SDS_P1;SDS_P2;PMS_P1;PMS_P2;Temp;Humidity;BMP_temperature;BMP_pressure;BME280_temperature;BME280_humidity;BME280_pressure;Samples;Min_cycle;Max_cycle;Signal;HPM_P1;HPM_P2
2022/11/15 00:00:03;;;;;;;;;7.50;7.50;;;;;;;;4979812;28;51489;-56
2022/11/15 00:02:48;;;;;;;;;7.75;7.00;;;;;;;;4998243;28;51487;-55
2022/11/15 00:05:35;;;;;;;;;8.00;7.00;;;;;;;;5000958;28;51186;-55
2022/11/15 00:08:19;;;;;;;;;10.25;7.50;;;;;;;;5001100;28;51138;-55
2022/11/15 00:11:04;;;;;;;;;9.00;7.50;;;;;;;;5000430;28;51595;-55
2022/11/15 00:13:48;;;;;;;;;10.75;7.75;;;;;;;;4986130;28;51266;-56
2022/11/15 00:16:32;;;;;;;;;9.25;8.75;;;;;;;;4984810;28;51089;-52
2022/11/15 00:19:17;;;;;;;;;8.50;8.00;;;;;;;;4981995;28;51099;-54
2022/11/15 00:22:01;;;;;;;;;10.75;8.00;;;;;;;;4981691;28;51246;-52
2022/11/15 00:24:46;;;;;;;;;10.25;7.75;;;;;;;;4986669;28;51135;-56
2022/11/15 00:27:30;;;;;;;;;9.25;6.50;;;;;;;;4989699;28;51355;-54
2022/11/15 00:30:15;;;;;;;;;8.50;7.00;;;;;;;;4981473;28;51118;-57
2022/11/15 00:33:03;;;;;;;;;10.00;8.00;;;;;;;;4981726;28;51078;-55
2022/11/15 00:35:47;;;;;;;;;9.50;8.00;;;;;;;;4988196;28;51169;-55
2022/11/15 00:38:35;;;;;;;;;8.50;8.00;;;;;;;;4981452;28;51147;-53
2022/11/15 00:41:19;;;;;;;;;6.00;4.25;;;;;;;;4982001;28;51009;-55
2022/11/15 00:44:04;;;;;;;;;9.75;8.25;;;;;;;;4981289;28;51125;-53
2022/11/15 00:46:48;;;;;;;;;6.25;6.25;;;;;;;;4981840;28;51142;-54
2022/11/15 00:49:33;;;;;;;;;6.75;6.50;;;;;;;;4981427;28;51149;-55
2022/11/15 00:52:17;;;;;;;;;12.00;11.50;;;;;;;;4983351;28;51488;-54
2022/11/15 00:55:02;;;;;;;;;9.50;6.75;;;;;;;;4999487;28;51582;-54
2022/11/15 00:57:46;;;;;;;;;8.50;7.25;;;;;;;;5001327;28;51226;-54
2022/11/15 01:00:30;;;;;;;;;7.75;7.00;;;;;;;;5000637;28;51211;-55
2022/11/15 01:03:15;;;;;;;;;9.00;7.75;;;;;;;;5000178;28;51148;-54
2022/11/15 01:06:00;;;;;;;;;11.00;8.75;;;;;;;;5000659;28;51126;-54
2022/11/15 01:08:44;;;;;;;;;9.00;8.00;;;;;;;;5000534;28;51533;-55
2022/11/15 01:11:29;;;;;;;;;9.00;9.00;;;;;;;;5000082;28;51031;-55
2022/11/15 01:14:13;;;;;;;;;7.00;7.00;;;;;;;;4999986;28;51349;-54
2022/11/15 01:16:57;;;;;;;;;8.00;8.00;;;;;;;;5000493;28;51429;-56
2022/11/15 01:19:42;;;;;;;;;11.25;7.50;;;;;;;;5000242;28;51090;-56
2022/11/15 01:22:26;;;;;;;;;8.25;8.25;;;;;;;;5000693;28;51043;-56
2022/11/15 01:25:10;;;;;;;;;7.50;7.00;;;;;;;;4999732;28;51157;-56
2022/11/15 01:27:55;;;;;;;;;10.00;8.00;;;;;;;;5000339;28;51164;-57
2022/11/15 01:30:39;;;;;;;;;10.75;9.00;;;;;;;;5000441;28;51052;-55
2022/11/15 01:33:24;;;;;;;;;11.00;8.75;;;;;;;;4999494;28;51099;-55
2022/11/15 01:36:11;;;;;;;;;9.00;6.00;;;;;;;;4999949;28;51087;-56
2022/11/15 01:38:57;;;;;;;;;10.50;8.50;;;;;;;;4999870;28;51068;-56
2022/11/15 01:41:41;;;;;;;;;7.75;7.50;;;;;;;;5000009;28;51008;-55
2022/11/15 01:44:32;;;;;;;;;9.75;8.75;;;;;;;;4991751;28;51140;-55
2022/11/15 01:47:22;;;;;;;;;10.00;8.75;;;;;;;;4993466;28;50969;-55
2022/11/15 01:50:08;;;;;;;;;8.25;7.75;;;;;;;;4999779;28;51546;-55
2022/11/15 01:52:52;;;;;;;;;11.25;9.00;;;;;;;;4999857;28;51163;-56
2022/11/15 01:55:37;;;;;;;;;14.25;8.00;;;;;;;;4999719;28;51388;-53
2022/11/15 01:58:21;;;;;;;;;10.25;8.00;;;;;;;;4999521;28;51122;-54
2022/11/15 02:01:06;;;;;;;;;9.25;7.75;;;;;;;;4999807;28;51118;-56
2022/11/15 02:03:52;;;;;;;;;10.50;8.75;;;;;;;;4999537;28;51035;-56
2022/11/15 02:06:36;;;;;;;;;11.50;8.75;;;;;;;;4999271;28;51577;-54
2022/11/15 02:09:20;;;;;;;;;9.00;7.50;;;;;;;;4995728;28;51127;-54
2022/11/15 02:12:08;;;;;;;;;10.25;8.25;;;;;;;;4979821;28;51205;-55
2022/11/15 02:14:54;;;;;;;;;11.50;9.25;;;;;;;;4979146;28;51606;-56
2022/11/15 02:17:38;;;;;;;;;9.00;7.50;;;;;;;;4979640;28;51069;-56
2022/11/15 02:20:35;;;;;;;;;10.00;7.00;;;;;;;;4979890;28;51423;-54
2022/11/15 02:23:58;;;;;;;;;9.00;8.00;;;;;;;;4996330;28;51080;-54
2022/11/15 02:26:42;;;;;;;;;11.25;8.25;;;;;;;;4919064;28;51029;-55
2022/11/15 02:29:34;;;;;;;;;9.75;8.75;;;;;;;;4919049;28;51491;-56
2022/11/15 02:32:22;;;;;;;;;8.00;7.75;;;;;;;;4990783;28;51076;-55
2022/11/15 02:35:18;;;;;;;;;11.25;9.25;;;;;;;;4999162;28;51111;-54
2022/11/15 02:38:10;;;;;;;;;10.75;9.50;;;;;;;;4999540;28;51036;-57
2022/11/15 02:41:09;;;;;;;;;6.75;6.00;;;;;;;;4999085;28;51948;-56
2022/11/15 02:44:00;;;;;;;;;13.50;10.75;;;;;;;;4998901;28;51127;-56
2022/11/15 02:47:14;;;;;;;;;12.00;8.00;;;;;;;;4998713;28;51127;-52
2022/11/15 02:50:00;;;;;;;;;11.00;9.25;;;;;;;;4989488;28;51067;-57
2022/11/15 02:52:46;;;;;;;;;14.75;9.75;;;;;;;;4979703;28;51215;-57
2022/11/15 02:55:34;;;;;;;;;17.00;15.75;;;;;;;;4992772;28;51583;-57
2022/11/15 02:58:21;;;;;;;;;16.00;15.25;;;;;;;;4997725;28;52518;-54
2022/11/15 03:01:24;;;;;;;;;19.50;16.50;;;;;;;;4979257;28;51103;-53
2022/11/15 03:04:11;;;;;;;;;20.00;18.50;;;;;;;;4979375;28;51054;-54
2022/11/15 03:07:04;;;;;;;;;20.50;18.50;;;;;;;;4978681;28;51411;-54
2022/11/15 03:10:00;;;;;;;;;22.50;20.25;;;;;;;;4990143;28;51131;-54
2022/11/15 03:12:51;;;;;;;;;18.25;17.50;;;;;;;;4998712;28;51218;-55
2022/11/15 03:15:38;;;;;;;;;21.75;20.75;;;;;;;;4998767;28;51170;-56
2022/11/15 03:18:30;;;;;;;;;25.00;20.00;;;;;;;;4998556;28;51139;-55
2022/11/15 03:21:16;;;;;;;;;24.75;20.50;;;;;;;;4998600;28;51218;-55
2022/11/15 03:24:03;;;;;;;;;26.00;22.25;;;;;;;;4998928;28;51162;-55
2022/11/15 03:26:48;;;;;;;;;20.75;19.50;;;;;;;;4982863;28;51182;-52
2022/11/15 03:29:35;;;;;;;;;21.00;17.25;;;;;;;;4996212;28;51106;-56
2022/11/15 03:32:22;;;;;;;;;20.75;19.50;;;;;;;;4998432;28;51473;-55
2022/11/15 03:35:08;;;;;;;;;24.75;20.00;;;;;;;;4989689;28;51297;-55
2022/11/15 03:37:58;;;;;;;;;22.50;21.25;;;;;;;;4982277;28;51443;-54
2022/11/15 03:40:45;;;;;;;;;22.25;19.50;;;;;;;;4982383;28;51076;-54
2022/11/15 03:43:34;;;;;;;;;22.50;21.25;;;;;;;;4989285;28;51386;-54
2022/11/15 03:46:27;;;;;;;;;24.25;21.25;;;;;;;;4982026;28;51660;-56
2022/11/15 03:49:22;;;;;;;;;21.00;18.25;;;;;;;;4989318;28;51418;-53
2022/11/15 03:52:07;;;;;;;;;24.75;20.25;;;;;;;;5001790;28;51107;-53
2022/11/15 03:54:52;;;;;;;;;30.25;22.75;;;;;;;;5002454;28;50977;-54
2022/11/15 03:57:37;;;;;;;;;24.75;22.50;;;;;;;;5001498;28;51542;-57
2022/11/15 04:00:21;;;;;;;;;23.25;21.00;;;;;;;;5001781;28;51180;-54
2022/11/15 04:03:07;;;;;;;;;24.25;23.50;;;;;;;;5000327;28;51460;-55
2022/11/15 04:05:51;;;;;;;;;24.50;21.50;;;;;;;;5001572;28;51157;-56
2022/11/15 04:08:36;;;;;;;;;23.00;20.25;;;;;;;;5001549;28;51048;-56
2022/11/15 04:11:20;;;;;;;;;27.75;23.25;;;;;;;;5001466;28;51161;-55
2022/11/15 04:14:05;;;;;;;;;23.25;21.75;;;;;;;;5000761;28;51197;-56
2022/11/15 04:16:49;;;;;;;;;27.00;23.00;;;;;;;;4981896;28;51075;-57
2022/11/15 04:25:39;;;;;;;;;27.00;26.00;;;;;;;;4997977;28;51066;-55
2022/11/15 04:28:24;;;;;;;;;33.00;26.50;;;;;;;;5001521;28;51131;-54
2022/11/15 04:31:08;;;;;;;;;27.75;24.75;;;;;;;;5000558;28;51189;-55
2022/11/15 04:33:52;;;;;;;;;31.75;25.50;;;;;;;;4991168;28;51169;-54
2022/11/15 04:39:40;;;;;;;;;30.25;28.75;;;;;;;;4994714;28;51066;-56
2022/11/15 04:42:24;;;;;;;;;38.00;28.25;;;;;;;;5000789;28;51150;-55
2022/11/15 04:45:09;;;;;;;;;29.00;27.25;;;;;;;;5000360;28;51064;-55
2022/11/15 04:47:54;;;;;;;;;31.00;27.75;;;;;;;;4983717;28;51055;-54
2022/11/15 04:50:38;;;;;;;;;32.25;27.50;;;;;;;;4982214;28;51752;-52
2022/11/15 04:53:22;;;;;;;;;30.75;27.25;;;;;;;;4981511;28;51178;-54
2022/11/15 04:56:07;;;;;;;;;29.50;28.00;;;;;;;;4989592;28;51237;-55
2022/11/15 04:58:51;;;;;;;;;34.75;28.50;;;;;;;;4987882;28;51240;-54
2022/11/15 05:01:35;;;;;;;;;30.50;28.50;;;;;;;;4986254;28;51194;-54
2022/11/15 05:04:20;;;;;;;;;38.25;30.25;;;;;;;;4997697;28;51498;-55
2022/11/15 05:07:04;;;;;;;;;38.00;30.50;;;;;;;;4984098;28;51187;-53
2022/11/15 05:09:48;;;;;;;;;34.75;30.25;;;;;;;;4995654;28;51052;-57
2022/11/15 05:12:33;;;;;;;;;36.00;32.00;;;;;;;;4977592;28;51293;-55
2022/11/15 05:15:17;;;;;;;;;36.00;31.25;;;;;;;;4979060;28;51106;-56
2022/11/15 05:18:02;;;;;;;;;31.25;28.50;;;;;;;;4976766;28;51185;-55
2022/11/15 05:20:46;;;;;;;;;44.75;33.75;;;;;;;;4980070;28;51063;-57
2022/11/15 05:23:31;;;;;;;;;42.50;35.50;;;;;;;;4980863;28;51142;-55
2022/11/15 05:26:17;;;;;;;;;36.50;30.50;;;;;;;;4980900;28;51123;-55
2022/11/15 05:29:02;;;;;;;;;42.00;32.50;;;;;;;;4980916;28;51555;-57
2022/11/15 05:31:46;;;;;;;;;42.50;32.00;;;;;;;;4978998;28;51187;-55
2022/11/15 05:34:30;;;;;;;;;42.75;33.00;;;;;;;;4980073;28;51106;-53
2022/11/15 05:37:15;;;;;;;;;37.00;31.75;;;;;;;;4980305;28;51426;-53
2022/11/15 05:39:59;;;;;;;;;39.00;33.25;;;;;;;;4993340;28;51154;-56
2022/11/15 05:42:45;;;;;;;;;37.75;32.25;;;;;;;;4974120;28;51689;-57
2022/11/15 05:45:31;;;;;;;;;40.75;34.00;;;;;;;;4980211;28;51196;-55
2022/11/15 05:48:16;;;;;;;;;41.25;33.00;;;;;;;;4980063;28;51103;-53
2022/11/15 05:51:01;;;;;;;;;35.75;32.75;;;;;;;;4980582;28;51188;-54
2022/11/15 05:53:46;;;;;;;;;38.00;32.00;;;;;;;;4980341;28;51261;-54
2022/11/15 05:56:30;;;;;;;;;38.25;32.75;;;;;;;;4974939;28;50999;-54
2022/11/15 05:59:15;;;;;;;;;40.50;32.25;;;;;;;;4980336;28;51038;-55
2022/11/15 06:01:59;;;;;;;;;35.50;32.00;;;;;;;;4979681;28;51158;-56
2022/11/15 06:04:44;;;;;;;;;41.00;32.00;;;;;;;;4979879;28;51040;-55
2022/11/15 06:07:29;;;;;;;;;41.75;35.00;;;;;;;;4979486;28;51195;-54
2022/11/15 06:10:13;;;;;;;;;41.00;32.75;;;;;;;;4979875;28;51130;-55
2022/11/15 06:13:02;;;;;;;;;40.50;34.25;;;;;;;;4991458;28;51022;-58
2022/11/15 06:15:46;;;;;;;;;45.75;35.75;;;;;;;;4997549;28;51145;-58
2022/11/15 06:18:33;;;;;;;;;45.25;35.25;;;;;;;;4995639;28;51533;-58
2022/11/15 06:21:19;;;;;;;;;51.25;38.50;;;;;;;;4979963;28;51064;-57
2022/11/15 06:24:04;;;;;;;;;47.00;38.00;;;;;;;;4981000;28;51184;-58
2022/11/15 06:26:48;;;;;;;;;49.00;38.50;;;;;;;;4989158;28;51086;-57
2022/11/15 06:29:32;;;;;;;;;50.25;41.00;;;;;;;;4979904;28;51008;-57
2022/11/15 06:32:17;;;;;;;;;48.50;37.25;;;;;;;;4987504;28;51735;-58
2022/11/15 06:35:01;;;;;;;;;55.50;43.00;;;;;;;;4984281;28;50970;-59
2022/11/15 06:37:46;;;;;;;;;48.25;39.00;;;;;;;;4981083;28;50976;-59
2022/11/15 06:40:32;;;;;;;;;51.50;38.75;;;;;;;;4988681;28;51101;-58
2022/11/15 06:43:16;;;;;;;;;43.50;35.50;;;;;;;;4997498;28;51491;-57
2022/11/15 06:46:02;;;;;;;;;40.50;34.75;;;;;;;;4978557;28;51208;-57
2022/11/15 06:48:47;;;;;;;;;43.50;35.75;;;;;;;;4990525;28;51184;-57
2022/11/15 06:51:31;;;;;;;;;40.25;33.25;;;;;;;;4997921;28;51174;-59
2022/11/15 06:54:15;;;;;;;;;44.00;36.00;;;;;;;;4981092;28;51109;-59
2022/11/15 06:57:00;;;;;;;;;44.50;36.00;;;;;;;;4982427;28;51408;-59
2022/11/15 06:59:44;;;;;;;;;42.00;32.50;;;;;;;;4999392;28;51146;-59
2022/11/15 07:02:29;;;;;;;;;42.25;32.00;;;;;;;;4988780;28;51469;-58
2022/11/15 07:05:14;;;;;;;;;43.50;33.75;;;;;;;;4985880;28;51145;-58
2022/11/15 07:07:58;;;;;;;;;34.00;31.50;;;;;;;;4991043;28;51531;-56
2022/11/15 07:10:42;;;;;;;;;39.00;32.75;;;;;;;;5002904;28;51207;-57
2022/11/15 07:13:27;;;;;;;;;42.50;34.00;;;;;;;;5003066;28;51032;-58
2022/11/15 07:16:12;;;;;;;;;46.00;35.25;;;;;;;;4997988;28;51132;-58
2022/11/15 07:18:56;;;;;;;;;45.25;34.50;;;;;;;;5003075;28;51019;-58
2022/11/15 07:21:40;;;;;;;;;44.00;35.75;;;;;;;;4997262;28;51461;-57
2022/11/15 07:24:25;;;;;;;;;47.75;34.00;;;;;;;;4994162;28;51202;-57
2022/11/15 07:27:09;;;;;;;;;39.00;33.00;;;;;;;;4982864;28;51274;-58
2022/11/15 07:29:54;;;;;;;;;44.25;35.00;;;;;;;;4990911;28;51222;-58
2022/11/15 07:32:38;;;;;;;;;42.50;33.75;;;;;;;;4994809;28;51259;-58
2022/11/15 07:35:23;;;;;;;;;47.50;37.50;;;;;;;;4986117;28;51162;-59
2022/11/15 07:38:08;;;;;;;;;43.50;34.75;;;;;;;;4991308;28;51165;-58
2022/11/15 07:40:59;;;;;;;;;36.75;31.25;;;;;;;;4982140;28;51498;-58
2022/11/15 07:43:44;;;;;;;;;33.00;29.00;;;;;;;;5001148;28;51062;-59
2022/11/15 07:46:28;;;;;;;;;41.75;31.00;;;;;;;;5001979;28;51513;-58
2022/11/15 07:49:12;;;;;;;;;40.75;33.50;;;;;;;;4987218;28;51122;-59
2022/11/15 07:51:57;;;;;;;;;42.00;34.25;;;;;;;;4982392;28;51017;-59
2022/11/15 07:54:41;;;;;;;;;39.00;31.25;;;;;;;;4982424;28;51121;-59
2022/11/15 07:57:26;;;;;;;;;35.00;29.25;;;;;;;;4983347;28;51087;-59
2022/11/15 08:00:10;;;;;;;;;33.00;29.75;;;;;;;;5001626;28;51130;-59
2022/11/15 08:03:01;;;;;;;;;36.25;31.75;;;;;;;;5002284;28;51194;-59
2022/11/15 08:05:50;;;;;;;;;35.50;31.00;;;;;;;;5001497;28;51055;-59
2022/11/15 08:08:34;;;;;;;;;33.25;26.75;;;;;;;;5001934;28;51178;-59
2022/11/15 08:11:18;;;;;;;;;24.25;24.00;;;;;;;;5002061;28;51063;-59
2022/11/15 08:14:03;;;;;;;;;27.00;26.25;;;;;;;;5001823;28;51168;-59
2022/11/15 08:16:47;;;;;;;;;28.75;22.00;;;;;;;;5001069;28;51500;-59
2022/11/15 08:19:31;;;;;;;;;26.50;24.50;;;;;;;;5000979;28;51049;-60
2022/11/15 08:22:16;;;;;;;;;28.25;25.75;;;;;;;;4992352;28;51000;-59
2022/11/15 08:25:00;;;;;;;;;23.25;22.50;;;;;;;;5000788;28;51103;-59
2022/11/15 08:27:45;;;;;;;;;26.50;21.75;;;;;;;;5001567;28;51091;-59
2022/11/15 08:30:30;;;;;;;;;21.75;19.00;;;;;;;;4996905;28;51047;-59
2022/11/15 08:33:14;;;;;;;;;23.00;22.50;;;;;;;;4998696;28;51163;-59
2022/11/15 08:35:59;;;;;;;;;3.50;2.00;;;;;;;;4988147;28;51372;-56
2022/11/15 08:38:44;;;;;;;;;20.00;17.00;;;;;;;;4981317;28;51170;-59
2022/11/15 08:41:30;;;;;;;;;13.75;11.25;;;;;;;;4988887;28;51179;-59
2022/11/15 08:44:14;;;;;;;;;14.50;11.25;;;;;;;;4981358;28;51218;-59
2022/11/15 08:46:59;;;;;;;;;15.00;12.75;;;;;;;;4991169;28;51122;-59
2022/11/15 08:49:43;;;;;;;;;12.50;12.50;;;;;;;;4989959;28;51074;-59
2022/11/15 08:52:28;;;;;;;;;11.25;9.50;;;;;;;;4986472;28;51135;-59
2022/11/15 08:55:12;;;;;;;;;12.00;8.50;;;;;;;;5000781;28;51479;-57
2022/11/15 08:57:57;;;;;;;;;7.75;6.00;;;;;;;;4985705;28;51129;-57
2022/11/15 09:00:42;;;;;;;;;9.75;6.75;;;;;;;;4993008;28;51055;-59
2022/11/15 09:03:26;;;;;;;;;10.00;9.75;;;;;;;;5001275;28;50988;-59
2022/11/15 09:06:10;;;;;;;;;9.75;7.75;;;;;;;;4999600;28;51015;-57
2022/11/15 09:08:55;;;;;;;;;8.00;8.00;;;;;;;;5000780;28;51076;-59
2022/11/15 09:11:39;;;;;;;;;10.25;9.25;;;;;;;;4989005;28;51314;-59
2022/11/15 09:14:24;;;;;;;;;10.50;8.50;;;;;;;;4982112;28;51199;-57
2022/11/15 09:17:08;;;;;;;;;4.50;4.50;;;;;;;;4990310;28;51092;-57
2022/11/15 09:19:53;;;;;;;;;10.25;8.25;;;;;;;;4992133;28;51423;-59
2022/11/15 09:22:38;;;;;;;;;13.00;11.00;;;;;;;;4998856;28;51096;-57
2022/11/15 09:25:22;;;;;;;;;10.00;7.75;;;;;;;;5000146;28;51022;-58
2022/11/15 09:28:07;;;;;;;;;9.50;8.25;;;;;;;;4992557;28;51162;-57
2022/11/15 09:30:55;;;;;;;;;10.00;10.00;;;;;;;;4996227;28;51137;-57
2022/11/15 09:33:39;;;;;;;;;14.25;8.50;;;;;;;;4995448;28;51177;-58
2022/11/15 09:36:23;;;;;;;;;11.75;9.00;;;;;;;;4980687;28;51414;-57
2022/11/15 09:39:08;;;;;;;;;11.50;9.75;;;;;;;;4991799;28;51210;-57
2022/11/15 09:41:52;;;;;;;;;9.25;8.00;;;;;;;;4985356;28;51138;-56
2022/11/15 09:44:43;;;;;;;;;8.00;7.50;;;;;;;;4992923;28;51458;-57
2022/11/15 09:47:43;;;;;;;;;18.00;15.75;;;;;;;;4989396;28;51673;-57
2022/11/15 09:50:34;;;;;;;;;12.25;11.00;;;;;;;;4992253;28;51135;-57
2022/11/15 09:53:41;;;;;;;;;7.75;7.50;;;;;;;;4988008;28;51115;-58
2022/11/15 09:56:34;;;;;;;;;8.00;8.00;;;;;;;;4996807;28;51393;-57
2022/11/15 09:59:25;;;;;;;;;22.25;20.00;;;;;;;;4986435;28;51209;-57
2022/11/15 10:02:28;;;;;;;;;11.50;9.50;;;;;;;;4985230;28;51018;-57
2022/11/15 10:05:15;;;;;;;;;9.25;7.75;;;;;;;;4987390;28;51156;-58
2022/11/15 10:08:05;;;;;;;;;10.75;9.00;;;;;;;;4982669;28;51090;-57
2022/11/15 10:10:52;;;;;;;;;9.75;9.25;;;;;;;;4982137;28;51111;-58
2022/11/15 10:13:39;;;;;;;;;10.25;9.00;;;;;;;;4999831;28;51190;-58
2022/11/15 10:16:42;;;;;;;;;13.00;10.50;;;;;;;;4980970;28;51086;-57
2022/11/15 10:19:34;;;;;;;;;9.25;8.25;;;;;;;;4983220;28;51161;-58
2022/11/15 10:22:25;;;;;;;;;10.75;9.50;;;;;;;;4981246;28;51427;-57
2022/11/15 10:25:16;;;;;;;;;15.25;13.00;;;;;;;;4979297;28;51134;-58
2022/11/15 10:28:03;;;;;;;;;14.00;10.50;;;;;;;;4979677;28;51072;-60
2022/11/15 10:30:49;;;;;;;;;12.50;10.75;;;;;;;;4979857;28;51104;-59
2022/11/15 10:33:35;;;;;;;;;11.75;10.50;;;;;;;;4968751;28;51277;-60
2022/11/15 10:36:21;;;;;;;;;10.00;9.25;;;;;;;;4999151;28;51127;-59
2022/11/15 10:39:05;;;;;;;;;8.75;8.50;;;;;;;;4984280;28;51117;-60
2022/11/15 10:41:50;;;;;;;;;13.00;11.50;;;;;;;;4987630;28;51076;-59
2022/11/15 10:44:41;;;;;;;;;10.00;7.75;;;;;;;;4976422;28;51166;-60
2022/11/15 10:47:30;;;;;;;;;11.75;11.75;;;;;;;;4999341;28;51562;-59
2022/11/15 10:50:31;;;;;;;;;15.75;14.25;;;;;;;;4980360;28;51089;-59
2022/11/15 10:53:19;;;;;;;;;14.75;13.50;;;;;;;;5001967;28;51113;-60
2022/11/15 10:56:06;;;;;;;;;16.00;13.00;;;;;;;;4983763;28;51035;-59
2022/11/15 10:58:55;;;;;;;;;16.25;14.75;;;;;;;;4988946;28;51026;-59
2022/11/15 11:01:47;;;;;;;;;10.25;9.00;;;;;;;;4999135;28;51121;-59
2022/11/15 11:04:48;;;;;;;;;11.50;9.75;;;;;;;;4995871;28;51092;-59
2022/11/15 11:07:34;;;;;;;;;11.75;8.50;;;;;;;;4979029;28;51163;-59
2022/11/15 11:10:19;;;;;;;;;10.75;9.50;;;;;;;;4993568;28;51095;-59
2022/11/15 11:13:14;;;;;;;;;11.75;8.50;;;;;;;;4994085;28;51211;-59
2022/11/15 11:16:14;;;;;;;;;11.75;11.00;;;;;;;;4983549;28;51115;-60
2022/11/15 11:19:10;;;;;;;;;12.75;9.50;;;;;;;;4986534;28;51358;-60
2022/11/15 11:22:13;;;;;;;;;10.75;9.00;;;;;;;;4984450;28;51095;-60
2022/11/15 11:25:16;;;;;;;;;14.00;11.00;;;;;;;;4992582;28;51123;-60
2022/11/15 11:28:13;;;;;;;;;14.25;12.00;;;;;;;;4995720;28;51198;-60
2022/11/15 11:31:14;;;;;;;;;12.00;9.50;;;;;;;;4997085;28;51058;-60
2022/11/15 11:33:59;;;;;;;;;11.50;10.75;;;;;;;;4990415;28;51246;-59
2022/11/15 11:36:56;;;;;;;;;13.00;9.75;;;;;;;;4990382;28;51173;-60
2022/11/15 11:39:44;;;;;;;;;12.75;12.00;;;;;;;;4989388;28;51443;-59
2022/11/15 11:42:29;;;;;;;;;13.25;10.75;;;;;;;;4990994;28;51104;-60
2022/11/15 11:45:32;;;;;;;;;11.00;9.50;;;;;;;;4998589;28;51593;-60
2022/11/15 11:48:36;;;;;;;;;10.75;8.50;;;;;;;;4981027;28;51165;-59
2022/11/15 11:51:24;;;;;;;;;10.25;8.75;;;;;;;;4994987;28;51064;-59
2022/11/15 11:54:25;;;;;;;;;10.25;10.00;;;;;;;;4989990;28;51363;-60
2022/11/15 11:57:18;;;;;;;;;11.00;10.50;;;;;;;;4982718;28;51129;-60
2022/11/15 12:00:12;;;;;;;;;12.50;12.50;;;;;;;;4982187;28;51115;-59
2022/11/15 12:03:35;;;;;;;;;10.00;9.00;;;;;;;;4985260;28;51131;-60
2022/11/15 12:06:40;;;;;;;;;13.50;10.75;;;;;;;;4920020;28;51266;-60
2022/11/15 12:09:24;;;;;;;;;17.25;13.00;;;;;;;;4920121;28;51245;-60
2022/11/15 12:12:08;;;;;;;;;14.75;14.00;;;;;;;;4997199;28;51562;-59
2022/11/15 12:14:58;;;;;;;;;12.00;10.50;;;;;;;;5000382;28;51235;-60
2022/11/15 12:17:43;;;;;;;;;12.50;10.75;;;;;;;;4983661;28;51143;-60
2022/11/15 12:20:30;;;;;;;;;13.25;10.75;;;;;;;;4980687;28;51456;-59
2022/11/15 12:23:17;;;;;;;;;11.00;10.00;;;;;;;;4985509;28;51479;-60
2022/11/15 12:26:02;;;;;;;;;11.75;11.00;;;;;;;;4990057;28;51098;-60
2022/11/15 12:28:46;;;;;;;;;14.75;11.25;;;;;;;;4998372;28;51187;-59
2022/11/15 12:31:34;;;;;;;;;12.75;12.00;;;;;;;;5000188;28;51546;-59
2022/11/15 12:34:20;;;;;;;;;15.50;11.75;;;;;;;;4981248;28;51181;-59
2022/11/15 12:37:24;;;;;;;;;12.50;11.00;;;;;;;;4980918;28;51477;-60
2022/11/15 12:40:20;;;;;;;;;14.25;11.00;;;;;;;;4989489;28;51252;-59
2022/11/15 12:43:30;;;;;;;;;13.25;11.00;;;;;;;;4994191;28;51131;-60
2022/11/15 12:46:17;;;;;;;;;10.00;10.00;;;;;;;;4997754;28;51185;-59
2022/11/15 12:49:10;;;;;;;;;18.25;15.50;;;;;;;;4982372;28;51650;-59
2022/11/15 12:51:57;;;;;;;;;15.00;11.25;;;;;;;;4981178;28;51082;-60
2022/11/15 12:54:41;;;;;;;;;15.00;12.75;;;;;;;;4982112;28;51162;-60
2022/11/15 12:57:26;;;;;;;;;18.25;14.25;;;;;;;;4987143;28;51239;-60
2022/11/15 13:03:28;;;;;;;;;20.75;17.00;;;;;;;;4939149;28;51111;-59
2022/11/15 13:06:32;;;;;;;;;19.00;15.75;;;;;;;;4918182;28;51190;-60
2022/11/15 13:09:37;;;;;;;;;18.25;15.50;;;;;;;;4923538;28;51183;-59
2022/11/15 13:12:21;;;;;;;;;15.25;15.00;;;;;;;;4923368;28;51109;-59
2022/11/15 13:15:12;;;;;;;;;17.00;16.00;;;;;;;;4935547;28;51272;-59
2022/11/15 13:17:57;;;;;;;;;18.75;18.00;;;;;;;;4938970;28;51109;-60
2022/11/15 13:20:44;;;;;;;;;19.75;16.00;;;;;;;;4940165;28;51361;-59
2022/11/15 13:23:29;;;;;;;;;17.25;16.00;;;;;;;;4934222;28;51043;-60
2022/11/15 13:26:16;;;;;;;;;14.75;13.00;;;;;;;;4938610;28;51196;-60
2022/11/15 13:29:00;;;;;;;;;15.25;14.00;;;;;;;;4936926;28;51394;-59
2022/11/15 13:31:46;;;;;;;;;12.50;8.25;;;;;;;;4920295;28;51134;-60
2022/11/15 13:34:36;;;;;;;;;11.75;11.00;;;;;;;;4935077;28;51095;-59
2022/11/15 13:37:20;;;;;;;;;11.25;8.25;;;;;;;;4937568;28;51622;-59
2022/11/15 13:40:18;;;;;;;;;12.75;10.50;;;;;;;;4967555;28;51237;-59
2022/11/15 13:43:21;;;;;;;;;14.00;9.50;;;;;;;;4999826;28;51083;-59
2022/11/15 13:46:06;;;;;;;;;12.75;11.50;;;;;;;;5000314;28;51055;-60
2022/11/15 13:48:53;;;;;;;;;15.75;13.25;;;;;;;;4991014;28;51068;-60
2022/11/15 13:51:40;;;;;;;;;17.50;12.50;;;;;;;;4998479;28;51212;-59
2022/11/15 13:54:34;;;;;;;;;14.00;12.50;;;;;;;;4988017;28;51013;-59
2022/11/15 13:57:21;;;;;;;;;13.25;10.25;;;;;;;;4995587;28;51564;-59
2022/11/15 14:00:22;;;;;;;;;15.50;11.50;;;;;;;;4986380;28;51205;-60
2022/11/15 14:03:14;;;;;;;;;16.00;15.25;;;;;;;;4999527;28;51113;-60
2022/11/15 14:06:01;;;;;;;;;13.75;12.25;;;;;;;;5000189;28;51575;-59
2022/11/15 14:09:01;;;;;;;;;15.75;11.00;;;;;;;;4999315;28;51205;-60
2022/11/15 14:11:53;;;;;;;;;14.00;12.50;;;;;;;;4995552;28;51082;-59
2022/11/15 14:14:44;;;;;;;;;10.75;10.75;;;;;;;;4981502;28;51109;-59
2022/11/15 14:17:28;;;;;;;;;13.00;11.25;;;;;;;;4984055;28;51126;-60
2022/11/15 14:20:24;;;;;;;;;15.00;11.00;;;;;;;;4998933;28;51130;-59
2022/11/15 14:23:26;;;;;;;;;16.50;13.25;;;;;;;;4993293;28;51155;-59
2022/11/15 14:26:30;;;;;;;;;13.50;12.25;;;;;;;;4989628;28;51226;-59
2022/11/15 14:29:28;;;;;;;;;15.25;11.50;;;;;;;;4978073;28;51391;-59
2022/11/15 14:32:14;;;;;;;;;13.75;11.75;;;;;;;;4985977;28;51540;-55
2022/11/15 14:35:00;;;;;;;;;12.75;10.75;;;;;;;;4977426;28;51233;-53
2022/11/15 14:37:44;;;;;;;;;19.25;12.50;;;;;;;;4977925;28;51215;-52
2022/11/15 14:40:29;;;;;;;;;18.75;14.00;;;;;;;;4978661;28;51398;-53
2022/11/15 14:43:14;;;;;;;;;17.00;12.50;;;;;;;;4977312;28;51357;-53
2022/11/15 14:45:59;;;;;;;;;15.25;12.00;;;;;;;;4979688;28;51052;-49
2022/11/15 14:48:43;;;;;;;;;11.75;9.75;;;;;;;;4991566;28;51179;-51
2022/11/15 14:51:28;;;;;;;;;13.50;13.50;;;;;;;;4983954;28;51168;-56
2022/11/15 14:54:12;;;;;;;;;17.50;14.25;;;;;;;;4997872;28;51142;-53
2022/11/15 14:56:56;;;;;;;;;16.50;15.75;;;;;;;;4999034;28;51114;-54
2022/11/15 14:59:41;;;;;;;;;18.75;13.75;;;;;;;;4987911;28;51157;-54
2022/11/15 15:02:26;;;;;;;;;16.00;14.75;;;;;;;;4999011;28;51068;-52
2022/11/15 15:05:18;;;;;;;;;15.00;13.75;;;;;;;;4997073;28;51115;-48
2022/11/15 15:08:03;;;;;;;;;19.00;16.00;;;;;;;;4997679;28;51239;-50
2022/11/15 15:10:48;;;;;;;;;14.50;13.25;;;;;;;;4989363;28;51454;-54
2022/11/15 15:13:32;;;;;;;;;20.25;16.75;;;;;;;;4991312;28;51059;-52
2022/11/15 15:16:16;;;;;;;;;18.75;15.00;;;;;;;;4990107;28;52120;-52
2022/11/15 15:19:01;;;;;;;;;21.50;16.00;;;;;;;;4980443;28;51551;-54
2022/11/15 15:21:45;;;;;;;;;18.75;18.25;;;;;;;;4978966;28;51466;-49
2022/11/15 15:24:29;;;;;;;;;16.50;12.25;;;;;;;;4979146;28;51255;-53
2022/11/15 15:27:14;;;;;;;;;6.75;6.00;;;;;;;;4979250;28;51052;-52
2022/11/15 15:29:58;;;;;;;;;15.00;11.50;;;;;;;;4980793;28;51562;-52
2022/11/15 15:32:42;;;;;;;;;9.25;8.25;;;;;;;;4983080;28;51163;-52
2022/11/15 15:35:29;;;;;;;;;14.75;12.00;;;;;;;;4985361;28;51416;-52
2022/11/15 15:38:15;;;;;;;;;10.00;9.50;;;;;;;;5001554;28;51185;-52
2022/11/15 15:41:01;;;;;;;;;16.25;13.00;;;;;;;;4988750;28;51346;-54
2022/11/15 15:43:46;;;;;;;;;12.00;9.75;;;;;;;;4982247;28;51355;-53
2022/11/15 15:46:30;;;;;;;;;15.50;13.75;;;;;;;;4982946;28;51237;-54
2022/11/15 15:49:14;;;;;;;;;14.00;13.00;;;;;;;;4978786;28;51082;-48
2022/11/15 15:51:59;;;;;;;;;22.75;17.00;;;;;;;;5001141;28;51223;-51
2022/11/15 15:54:43;;;;;;;;;15.00;12.50;;;;;;;;4992450;28;51483;-51
2022/11/15 15:57:28;;;;;;;;;15.75;13.75;;;;;;;;4981614;28;51155;-50
2022/11/15 16:00:13;;;;;;;;;14.50;14.00;;;;;;;;5001844;28;51505;-53
2022/11/15 16:02:58;;;;;;;;;19.75;13.75;;;;;;;;5001153;28;51072;-50
2022/11/15 16:05:42;;;;;;;;;21.50;15.00;;;;;;;;5002237;28;51353;-53
2022/11/15 16:08:27;;;;;;;;;19.00;14.25;;;;;;;;5001762;28;51127;-53
2022/11/15 16:11:11;;;;;;;;;20.75;14.75;;;;;;;;5001587;28;51067;-54
2022/11/15 16:13:56;;;;;;;;;14.50;13.25;;;;;;;;5001880;28;51162;-53
2022/11/15 16:16:40;;;;;;;;;18.75;14.25;;;;;;;;4992761;28;51118;-53
2022/11/15 16:19:25;;;;;;;;;18.75;17.75;;;;;;;;4981468;28;51055;-49
2022/11/15 16:22:09;;;;;;;;;21.00;15.25;;;;;;;;4982176;28;51246;-51
2022/11/15 16:24:53;;;;;;;;;15.00;14.00;;;;;;;;4989293;28;51103;-54
2022/11/15 16:27:44;;;;;;;;;18.25;14.00;;;;;;;;4981679;28;51142;-55
2022/11/15 16:30:28;;;;;;;;;19.75;15.25;;;;;;;;4982262;28;51110;-50
2022/11/15 16:33:13;;;;;;;;;17.25;14.25;;;;;;;;4981544;28;51047;-53